Time;durP1;ratioP1;P1;durP2;ratioP2;P2;SDS_P1;SDS_P2;PMS_P1;PMS_P2;Temp;Humidity;BMP_temperature;BMP_pressure;BME280_temperature;BME280_humidity;BME280_pressure;Samples;Min_cycle;Max_cycle;Signal;HPM_P1;HPM_P2
2022/10/27 03:01:15;;;;;;;0.60;0.60;;;14.50;82.50;;;;;;5895159;22;20500;-73
2022/10/27 03:03:42;;;;;;;1.00;0.90;;;14.50;82.70;;;;;;5073511;28;20812;-73
2022/10/27 03:06:08;;;;;;;1.00;0.90;;;14.50;82.80;;;;;;5073391;28;20512;-73
2022/10/27 03:08:35;;;;;;;0.80;0.80;;;14.50;82.90;;;;;;5073397;28;20452;-74
2022/10/27 03:11:02;;;;;;;0.80;0.80;;;14.50;83.10;;;;;;5072771;28;20469;-73
2022/10/27 03:13:28;;;;;;;1.00;0.90;;;14.50;83.10;;;;;;5073324;28;20441;-73
2022/10/27 03:15:55;;;;;;;1.10;0.93;;;14.50;82.90;;;;;;5074927;28;20503;-69
2022/10/27 03:18:23;;;;;;;0.80;0.80;;;14.50;82.80;;;;;;5072987;28;20947;-69
2022/10/27 03:20:50;;;;;;;0.90;0.90;;;14.50;82.70;;;;;;5073178;28;20493;-69
2022/10/27 03:23:16;;;;;;;0.80;0.80;;;14.40;82.80;;;;;;5073185;28;20442;-69
2022/10/27 03:25:44;;;;;;;1.40;0.90;;;14.40;82.80;;;;;;5073102;28;20473;-69
2022/10/27 03:28:11;;;;;;;0.77;0.77;;;14.30;82.30;;;;;;5072913;28;20929;-69
2022/10/27 03:30:38;;;;;;;0.90;0.90;;;14.30;82.00;;;;;;5073075;28;20495;-70
2022/10/27 03:33:05;;;;;;;1.30;1.20;;;14.20;81.80;;;;;;5073118;28;20445;-70
2022/10/27 03:35:33;;;;;;;0.90;0.90;;;14.10;81.80;;;;;;5072809;28;20952;-69
2022/10/27 03:38:01;;;;;;;0.80;0.80;;;14.10;81.90;;;;;;5073094;28;20453;-69
2022/10/27 03:40:28;;;;;;;1.00;1.00;;;14.10;81.80;;;;;;5072948;28;20456;-69
2022/10/27 03:42:57;;;;;;;0.70;0.70;;;14.10;81.90;;;;;;5073086;28;20442;-69
2022/10/27 03:45:24;;;;;;;1.10;1.00;;;14.10;82.20;;;;;;5072624;28;20473;-70
2022/10/27 03:47:59;;;;;;;0.80;0.80;;;14.10;82.20;;;;;;5072646;28;20445;-69
2022/10/27 03:50:26;;;;;;;0.97;0.90;;;14.10;82.10;;;;;;5072608;28;20791;-69
2022/10/27 03:52:54;;;;;;;1.73;1.33;;;14.00;82.10;;;;;;5072926;28;20450;-69
2022/10/27 03:55:20;;;;;;;0.90;0.90;;;14.00;82.30;;;;;;5072868;28;20449;-69
2022/10/27 03:57:47;;;;;;;0.70;0.70;;;14.00;82.30;;;;;;5072872;28;20456;-69
2022/10/27 04:00:15;;;;;;;0.90;0.90;;;14.00;82.30;;;;;;5072811;28;20468;-69
2022/10/27 04:02:42;;;;;;;0.83;0.83;;;14.00;82.30;;;;;;5072363;28;20485;-69
2022/10/27 04:05:09;;;;;;;1.00;0.90;;;14.10;82.20;;;;;;5072725;28;20453;-70
2022/10/27 04:07:36;;;;;;;1.20;0.90;;;14.00;82.20;;;;;;5072793;28;20484;-69
2022/10/27 04:10:05;;;;;;;1.23;1.00;;;14.00;82.10;;;;;;5072452;28;20449;-69
2022/10/27 04:12:32;;;;;;;1.17;1.17;;;14.00;82.10;;;;;;5072440;28;20527;-69
2022/10/27 04:14:58;;;;;;;0.83;0.83;;;14.00;82.80;;;;;;5072700;28;20446;-70
2022/10/27 04:17:25;;;;;;;1.00;1.00;;;14.00;83.30;;;;;;5072590;28;20448;-69
2022/10/27 04:19:52;;;;;;;1.13;1.00;;;14.00;83.60;;;;;;5072269;28;20445;-69
2022/10/27 04:22:18;;;;;;;1.00;0.87;;;14.00;83.60;;;;;;5073861;28;20466;-69
2022/10/27 04:24:45;;;;;;;1.90;1.00;;;14.00;83.50;;;;;;5076230;28;20446;-69
2022/10/27 04:27:13;;;;;;;0.90;0.90;;;14.00;83.40;;;;;;5076100;28;20508;-70
2022/10/27 04:29:40;;;;;;;0.90;0.90;;;14.00;83.50;;;;;;5076130;28;20441;-69
2022/10/27 04:32:06;;;;;;;0.90;0.90;;;14.10;83.70;;;;;;5075974;28;20461;-69
2022/10/27 04:34:33;;;;;;;1.00;0.90;;;14.10;84.30;;;;;;5075769;28;20445;-70
2022/10/27 04:37:00;;;;;;;1.73;1.03;;;14.20;84.00;;;;;;5075971;28;20449;-69
2022/10/27 04:39:26;;;;;;;1.10;1.10;;;14.20;84.20;;;;;;5075982;28;20438;-70
2022/10/27 04:41:53;;;;;;;0.90;0.90;;;14.10;85.60;;;;;;5075831;28;20519;-69
2022/10/27 04:44:21;;;;;;;1.30;1.20;;;14.10;85.60;;;;;;5075869;28;20469;-70
2022/10/27 04:46:48;;;;;;;1.27;1.17;;;14.20;85.60;;;;;;5075728;28;20477;-70
2022/10/27 04:49:14;;;;;;;1.10;1.10;;;14.20;85.50;;;;;;5075826;28;20449;-70
2022/10/27 04:51:41;;;;;;;0.80;0.80;;;14.30;85.70;;;;;;5075666;28;20462;-69
2022/10/27 04:54:08;;;;;;;1.07;0.97;;;14.30;85.70;;;;;;5075670;28;20445;-70
2022/10/27 04:56:35;;;;;;;1.30;1.10;;;14.40;86.60;;;;;;5075676;28;20445;-69
2022/10/27 04:59:01;;;;;;;1.00;1.00;;;14.40;87.20;;;;;;5075624;28;20453;-70
2022/10/27 05:01:30;;;;;;;1.30;1.20;;;14.40;86.20;;;;;;5075303;28;20481;-69
2022/10/27 05:03:56;;;;;;;2.40;1.07;;;14.50;86.20;;;;;;5075483;28;20476;-70
2022/10/27 05:06:23;;;;;;;1.20;1.10;;;14.40;86.80;;;;;;5075454;28;20814;-69
2022/10/27 05:08:50;;;;;;;1.27;1.17;;;14.40;86.70;;;;;;5075434;28;20452;-70
2022/10/27 05:11:16;;;;;;;1.10;1.07;;;14.50;86.30;;;;;;5075004;28;20462;-70
2022/10/27 05:13:43;;;;;;;0.90;0.90;;;14.50;85.80;;;;;;5075331;28;20445;-69
2022/10/27 05:16:10;;;;;;;1.30;1.23;;;14.60;85.60;;;;;;5075292;28;20453;-69
2022/10/27 05:18:38;;;;;;;1.10;1.00;;;14.50;86.00;;;;;;5075224;28;20437;-69
2022/10/27 05:21:05;;;;;;;1.13;1.03;;;14.60;86.20;;;;;;5074882;28;21007;-69
2022/10/27 05:23:31;;;;;;;0.90;0.90;;;14.60;86.50;;;;;;5075123;28;20446;-69
2022/10/27 05:25:58;;;;;;;1.00;1.00;;;14.60;86.70;;;;;;5075033;28;20474;-69
2022/10/27 05:28:25;;;;;;;1.33;1.23;;;14.60;86.10;;;;;;5075088;28;20798;-69
2022/10/27 05:30:56;;;;;;;1.00;1.00;;;14.60;86.00;;;;;;5075032;28;20473;-69
2022/10/27 05:33:23;;;;;;;1.10;1.00;;;14.60;86.00;;;;;;5074774;28;20441;-69
2022/10/27 05:35:51;;;;;;;1.37;1.27;;;14.60;86.00;;;;;;5074866;28;20438;-69
2022/10/27 05:38:18;;;;;;;1.23;1.20;;;14.60;86.30;;;;;;5074837;28;20467;-69
2022/10/27 05:40:44;;;;;;;0.83;0.83;;;14.50;86.60;;;;;;5074468;28;20473;-71
2022/10/27 05:43:13;;;;;;;1.43;1.33;;;14.30;87.70;;;;;;5074786;28;20457;-70
2022/10/27 05:45:40;;;;;;;1.00;1.00;;;14.30;87.90;;;;;;5074329;28;20449;-69
2022/10/27 05:48:09;;;;;;;1.20;1.10;;;14.40;86.90;;;;;;5074308;28;20863;-70
2022/10/27 05:50:36;;;;;;;0.87;0.87;;;14.40;86.20;;;;;;5074185;28;20957;-70
2022/10/27 05:53:04;;;;;;;0.90;0.90;;;14.40;85.90;;;;;;5074539;28;20442;-69
2022/10/27 05:55:31;;;;;;;1.10;1.00;;;14.40;85.20;;;;;;5074447;28;20442;-69
2022/10/27 05:57:59;;;;;;;0.90;0.90;;;14.40;84.70;;;;;;5074352;28;20453;-69
2022/10/27 06:00:29;;;;;;;1.20;1.20;;;14.10;83.60;;;;;;5074324;28;20546;-70
2022/10/27 06:02:57;;;;;;;1.20;1.10;;;13.70;83.90;;;;;;5073963;28;21040;-69
2022/10/27 06:05:24;;;;;;;1.10;1.00;;;13.40;84.40;;;;;;5074304;28;20442;-69
2022/10/27 06:07:51;;;;;;;0.90;0.90;;;12.90;85.50;;;;;;5074218;28;20500;-70
2022/10/27 06:10:19;;;;;;;0.97;0.97;;;12.80;86.70;;;;;;5074163;28;20445;-69
2022/10/27 06:12:45;;;;;;;0.90;0.90;;;12.90;85.70;;;;;;5073857;28;20973;-69
2022/10/27 06:15:12;;;;;;;1.00;0.90;;;13.00;85.20;;;;;;5074319;28;20446;-70
2022/10/27 06:17:39;;;;;;;1.20;1.10;;;13.00;84.70;;;;;;5074045;28;20445;-70
2022/10/27 06:20:07;;;;;;;0.80;0.80;;;13.10;84.10;;;;;;5074094;28;20449;-69
2022/10/27 06:22:33;;;;;;;1.00;0.90;;;13.20;83.90;;;;;;5073910;28;20510;-70
2022/10/27 06:25:00;;;;;;;1.10;1.00;;;13.30;83.70;;;;;;5073916;28;20446;-69
2022/10/27 06:27:30;;;;;;;0.80;0.80;;;13.40;83.50;;;;;;5073814;28;20891;-70
2022/10/27 06:29:57;;;;;;;1.00;0.90;;;13.50;83.10;;;;;;5074087;28;20803;-69
2022/10/27 06:32:24;;;;;;;1.47;1.10;;;13.60;83.10;;;;;;5073677;28;20473;-70
2022/10/27 06:34:50;;;;;;;0.70;0.70;;;13.70;82.70;;;;;;5073710;28;20454;-69
2022/10/27 06:37:17;;;;;;;1.03;0.93;;;13.80;82.50;;;;;;5073714;28;20438;-69
2022/10/27 06:39:44;;;;;;;1.00;1.00;;;14.10;82.90;;;;;;5073643;28;20446;-69
2022/10/27 06:42:10;;;;;;;0.90;0.90;;;14.90;82.60;;;;;;5073264;28;20458;-69
2022/10/27 06:44:38;;;;;;;0.90;0.90;;;16.10;79.00;;;;;;5073030;28;20477;-69
2022/10/27 06:47:05;;;;;;;0.80;0.80;;;17.40;75.10;;;;;;5073546;28;20481;-70
2022/10/27 06:49:32;;;;;;;0.97;0.87;;;18.70;70.90;;;;;;5073294;28;20449;-71
2022/10/27 06:51:59;;;;;;;0.70;0.70;;;19.80;69.60;;;;;;5073141;28;20874;-70
2022/10/27 06:54:25;;;;;;;0.80;0.80;;;20.90;67.80;;;;;;5073210;28;20476;-71
2022/10/27 06:56:52;;;;;;;0.70;0.70;;;21.90;65.00;;;;;;5073525;28;20492;-70
2022/10/27 06:59:19;;;;;;;0.90;0.90;;;23.00;62.90;;;;;;5073399;28;20442;-71
2022/10/27 07:01:47;;;;;;;0.80;0.80;;;23.70;61.30;;;;;;5073086;28;20478;-71
2022/10/27 07:04:13;;;;;;;0.80;0.80;;;24.10;60.80;;;;;;5073410;28;20465;-70
2022/10/27 07:06:40;;;;;;;0.87;0.87;;;24.80;58.70;;;;;;5073260;28;20477;-70
2022/10/27 07:09:07;;;;;;;1.20;0.90;;;25.10;58.20;;;;;;5073315;28;20446;-70
2022/10/27 07:11:34;;;;;;;1.00;0.90;;;25.20;57.70;;;;;;5073264;28;20457;-71
2022/10/27 07:14:00;;;;;;;1.10;1.10;;;25.80;55.80;;;;;;5073837;28;20832;-71
2022/10/27 07:16:27;;;;;;;1.30;1.20;;;26.20;55.60;;;;;;5073248;28;20449;-70
2022/10/27 07:18:55;;;;;;;1.13;1.03;;;27.10;53.20;;;;;;5073253;28;20571;-70
2022/10/27 07:21:22;;;;;;;0.87;0.87;;;27.40;50.90;;;;;;5072854;28;20972;-70
2022/10/27 07:23:48;;;;;;;0.90;0.70;;;28.10;50.20;;;;;;5073213;28;20450;-70
2022/10/27 07:26:15;;;;;;;2.50;0.80;;;29.20;48.50;;;;;;5073460;28;20446;-71
2022/10/27 07:28:42;;;;;;;1.13;0.90;;;30.00;47.40;;;;;;5073175;28;20445;-71
2022/10/27 07:31:08;;;;;;;0.90;0.90;;;30.40;46.70;;;;;;5073006;28;20472;-71
2022/10/27 07:33:36;;;;;;;0.83;0.83;;;31.20;45.20;;;;;;5073104;28;20464;-70
2022/10/27 07:36:04;;;;;;;1.73;0.90;;;31.90;44.70;;;;;;5073069;28;20450;-71
2022/10/27 07:38:31;;;;;;;0.70;0.70;;;32.40;43.50;;;;;;5073074;28;20469;-72
2022/10/27 07:40:58;;;;;;;1.27;0.83;;;32.90;42.50;;;;;;5072974;28;20473;-71
2022/10/27 07:43:25;;;;;;;1.40;0.80;;;33.00;41.90;;;;;;5073007;28;20453;-72
2022/10/27 07:45:51;;;;;;;2.87;0.87;;;32.40;42.20;;;;;;5072669;28;20446;-70
2022/10/27 07:48:18;;;;;;;0.80;0.80;;;32.10;43.20;;;;;;5072841;28;20484;-70
2022/10/27 07:50:45;;;;;;;1.83;0.80;;;32.50;43.00;;;;;;5072858;28;20468;-72
2022/10/27 07:53:15;;;;;;;0.73;0.73;;;33.10;42.30;;;;;;5072966;28;20450;-71
2022/10/27 07:55:41;;;;;;;0.63;0.63;;;33.80;41.70;;;;;;5072880;28;20457;-70
2022/10/27 07:58:10;;;;;;;1.23;1.13;;;34.60;41.00;;;;;;5075218;28;20804;-72
2022/10/27 08:00:39;;;;;;;0.90;0.70;;;35.10;40.20;;;;;;5076530;28;20498;-71
2022/10/27 08:03:10;;;;;;;0.80;0.80;;;35.60;39.80;;;;;;5076661;28;20430;-71
2022/10/27 08:05:37;;;;;;;0.80;0.80;;;34.90;40.20;;;;;;5076636;28;20430;-71
2022/10/27 08:08:05;;;;;;;1.30;1.00;;;33.40;41.90;;;;;;5076128;28;20485;-70
2022/10/27 08:10:35;;;;;;;0.70;0.70;;;31.50;44.40;;;;;;5076436;28;20449;-72
2022/10/27 08:13:02;;;;;;;0.70;0.70;;;29.70;47.90;;;;;;5076497;28;20450;-70
2022/10/27 08:15:30;;;;;;;0.83;0.83;;;28.10;50.20;;;;;;5076399;28;20452;-71
2022/10/27 08:18:00;;;;;;;1.07;0.80;;;26.40;53.50;;;;;;5076380;28;20445;-71
2022/10/27 08:20:30;;;;;;;0.80;0.80;;;24.90;56.70;;;;;;5076360;28;20433;-71
2022/10/27 08:22:57;;;;;;;0.97;0.80;;;23.70;59.20;;;;;;5076069;28;20503;-70
2022/10/27 08:25:25;;;;;;;1.03;0.90;;;22.90;61.50;;;;;;5076287;28;20448;-69
2022/10/27 08:27:53;;;;;;;0.80;0.80;;;22.00;63.50;;;;;;5076008;28;21102;-69
2022/10/27 08:30:21;;;;;;;1.47;1.37;;;21.30;66.30;;;;;;5076132;28;20449;-69
2022/10/27 08:32:48;;;;;;;1.40;1.10;;;20.90;68.10;;;;;;5075668;28;20984;-69
2022/10/27 08:35:15;;;;;;;1.20;1.10;;;19.90;70.00;;;;;;5075732;28;20457;-69
2022/10/27 08:37:41;;;;;;;0.80;0.80;;;19.40;71.20;;;;;;5075678;28;20820;-68
2022/10/27 08:40:10;;;;;;;1.10;1.00;;;19.10;72.50;;;;;;5075794;28;20453;-70
2022/10/27 08:42:45;;;;;;;0.80;0.80;;;18.90;73.70;;;;;;5075873;28;20477;-68
2022/10/27 08:45:17;;;;;;;0.70;0.70;;;18.60;73.70;;;;;;5075842;28;20429;-70
2022/10/27 08:47:45;;;;;;;1.00;0.80;;;18.60;74.50;;;;;;5075787;28;20465;-69
2022/10/27 08:50:16;;;;;;;1.23;0.80;;;18.60;75.60;;;;;;5075823;28;20452;-70
2022/10/27 08:52:49;;;;;;;0.80;0.70;;;18.60;75.60;;;;;;5075726;28;20458;-72
2022/10/27 08:55:21;;;;;;;0.70;0.70;;;18.50;76.20;;;;;;5075392;28;20434;-69
2022/10/27 08:57:55;;;;;;;0.70;0.70;;;18.50;77.30;;;;;;5075682;28;20433;-68
2022/10/27 09:00:23;;;;;;;0.80;0.77;;;18.70;76.10;;;;;;5075666;28;20426;-71
2022/10/27 09:03:09;;;;;;;0.90;0.90;;;18.50;74.80;;;;;;5075120;28;20518;-70
2022/10/27 09:05:44;;;;;;;0.90;0.90;;;18.60;74.30;;;;;;5075589;28;20429;-69
2022/10/27 09:08:21;;;;;;;0.83;0.83;;;18.50;75.00;;;;;;5074588;28;20863;-69
2022/10/27 09:10:57;;;;;;;0.83;0.83;;;18.40;75.50;;;;;;5075396;28;20485;-71
2022/10/27 09:13:35;;;;;;;1.10;1.00;;;18.40;76.90;;;;;;5075141;28;20932;-69
2022/10/27 09:16:06;;;;;;;0.90;0.83;;;18.50;76.90;;;;;;5076618;28;20513;-74
2022/10/27 09:18:37;;;;;;;1.00;0.90;;;18.60;76.10;;;;;;5075012;28;20433;-74
2022/10/27 09:21:12;;;;;;;1.10;0.80;;;18.60;75.80;;;;;;5075223;28;20470;-74
2022/10/27 09:23:43;;;;;;;0.90;0.90;;;18.60;75.50;;;;;;5074890;28;20432;-74
2022/10/27 09:26:13;;;;;;;0.70;0.70;;;18.80;74.80;;;;;;5075269;28;20838;-74
2022/10/27 09:28:45;;;;;;;0.80;0.80;;;18.80;75.40;;;;;;5074581;28;20972;-74
2022/10/27 09:31:17;;;;;;;0.93;0.80;;;18.80;74.50;;;;;;5075908;28;20470;-73
2022/10/27 09:33:51;;;;;;;1.00;1.00;;;18.80;76.00;;;;;;5076360;28;20437;-73
2022/10/27 09:36:21;;;;;;;0.80;0.80;;;18.80;74.80;;;;;;5076559;28;20426;-72
2022/10/27 09:38:48;;;;;;;0.70;0.70;;;18.80;75.30;;;;;;5075409;28;20445;-73
2022/10/27 09:41:15;;;;;;;1.00;0.70;;;18.80;74.90;;;;;;5075577;28;20469;-73
2022/10/27 09:43:42;;;;;;;1.27;0.80;;;18.80;75.40;;;;;;5075693;28;20454;-74
2022/10/27 09:46:17;;;;;;;0.80;0.80;;;18.80;75.70;;;;;;5076862;28;20461;-73
2022/10/27 09:48:45;;;;;;;1.17;0.80;;;18.90;76.50;;;;;;5075403;28;20465;-71
2022/10/27 09:51:16;;;;;;;0.90;0.90;;;18.90;75.30;;;;;;5075234;28;20960;-74
2022/10/27 09:53:46;;;;;;;1.13;0.70;;;18.90;76.60;;;;;;5075696;28;20430;-74
2022/10/27 09:56:16;;;;;;;1.07;0.87;;;19.00;76.10;;;;;;5079264;28;20488;-74
2022/10/27 09:58:56;;;;;;;0.70;0.70;;;19.00;74.70;;;;;;5077607;28;20491;-74
2022/10/27 10:01:24;;;;;;;1.10;0.87;;;19.10;74.90;;;;;;5076337;28;20485;-74
2022/10/27 10:04:17;;;;;;;1.00;0.90;;;19.20;73.80;;;;;;5075563;28;20453;-74
2022/10/27 10:06:53;;;;;;;1.20;0.73;;;19.40;74.40;;;;;;5076654;28;20819;-74
2022/10/27 10:09:29;;;;;;;1.13;1.03;;;19.30;74.00;;;;;;5074689;28;20474;-74
2022/10/27 10:12:20;;;;;;;0.87;0.87;;;19.40;74.70;;;;;;5076173;28;20480;-73
2022/10/27 10:14:48;;;;;;;0.80;0.80;;;19.60;75.70;;;;;;5074966;28;20434;-74
2022/10/27 10:17:27;;;;;;;0.90;0.77;;;19.70;72.80;;;;;;5075334;28;20448;-74
2022/10/27 10:19:56;;;;;;;0.70;0.70;;;19.70;72.40;;;;;;5075290;28;20433;-74
2022/10/27 10:22:27;;;;;;;0.67;0.67;;;19.90;72.50;;;;;;5078410;28;20466;-74
2022/10/27 10:24:55;;;;;;;0.80;0.67;;;19.70;72.20;;;;;;5077315;28;20438;-74
2022/10/27 10:27:30;;;;;;;0.80;0.73;;;19.70;72.10;;;;;;5077191;28;20484;-74
2022/10/27 10:29:59;;;;;;;0.80;0.80;;;19.90;73.40;;;;;;5074527;28;20456;-75
2022/10/27 10:32:28;;;;;;;0.73;0.73;;;20.00;72.30;;;;;;5074049;28;20461;-76
2022/10/27 10:34:56;;;;;;;0.80;0.80;;;19.90;72.80;;;;;;5073807;28;20453;-75
2022/10/27 10:37:36;;;;;;;0.80;0.80;;;19.90;72.60;;;;;;5073749;28;20453;-73
2022/10/27 10:40:28;;;;;;;0.70;0.63;;;19.90;72.60;;;;;;5073797;28;20470;-74
2022/10/27 10:43:02;;;;;;;1.00;0.97;;;20.10;72.10;;;;;;5059521;28;20461;-73
2022/10/27 10:45:32;;;;;;;0.70;0.70;;;20.20;70.30;;;;;;5073915;28;20884;-73
2022/10/27 10:48:01;;;;;;;0.90;0.80;;;20.20;70.90;;;;;;5073336;28;21069;-72
2022/10/27 10:50:44;;;;;;;0.70;0.70;;;20.30;71.80;;;;;;5074163;28;20469;-73
2022/10/27 10:53:24;;;;;;;0.90;0.90;;;20.50;72.20;;;;;;5073619;28;20437;-73
2022/10/27 10:55:52;;;;;;;0.70;0.70;;;20.70;70.80;;;;;;5073592;28;20427;-73
2022/10/27 10:58:21;;;;;;;0.77;0.77;;;20.70;70.90;;;;;;5074041;28;20448;-73
2022/10/27 11:00:57;;;;;;;0.80;0.70;;;21.00;70.50;;;;;;5073437;28;20469;-73
2022/10/27 11:03:26;;;;;;;0.70;0.70;;;21.20;68.90;;;;;;5075213;28;20776;-73
2022/10/27 11:05:58;;;;;;;0.70;0.70;;;21.30;68.40;;;;;;5075218;28;20446;-72
2022/10/27 11:08:32;;;;;;;1.13;0.90;;;21.40;68.00;;;;;;5075910;28;20474;-74
2022/10/27 11:10:59;;;;;;;0.60;0.60;;;21.20;67.70;;;;;;5074287;28;20461;-73
2022/10/27 11:13:30;;;;;;;0.90;0.80;;;21.20;67.70;;;;;;5074123;28;20442;-73
2022/10/27 11:16:00;;;;;;;0.70;0.70;;;21.30;67.30;;;;;;5074907;28;20454;-73
2022/10/27 11:18:30;;;;;;;2.60;0.80;;;21.20;66.50;;;;;;5076734;28;20426;-75
2022/10/27 11:21:03;;;;;;;1.30;0.80;;;21.10;66.40;;;;;;5075144;28;20465;-73
2022/10/27 11:23:45;;;;;;;0.70;0.70;;;21.40;66.40;;;;;;5075099;28;20435;-73
2022/10/27 11:26:14;;;;;;;0.70;0.60;;;21.50;65.10;;;;;;5075668;28;20438;-73
2022/10/27 11:28:49;;;;;;;0.70;0.70;;;21.60;65.00;;;;;;5075266;28;20845;-74
2022/10/27 11:31:21;;;;;;;0.70;0.70;;;21.60;66.30;;;;;;5076837;28;20483;-73
2022/10/27 11:33:55;;;;;;;1.27;0.80;;;21.70;64.60;;;;;;5079346;28;20483;-73
2022/10/27 11:36:30;;;;;;;0.70;0.70;;;21.80;64.90;;;;;;5079673;28;20434;-73
2022/10/27 11:39:04;;;;;;;0.70;0.70;;;21.90;63.80;;;;;;5078306;28;20917;-73
2022/10/27 11:41:37;;;;;;;0.83;0.83;;;22.00;63.10;;;;;;5078803;28;20491;-73
2022/10/27 11:44:12;;;;;;;0.87;0.60;;;22.00;62.80;;;;;;5077772;28;20429;-74
2022/10/27 11:46:45;;;;;;;0.70;0.70;;;22.00;62.40;;;;;;5077513;28;20426;-74
2022/10/27 11:49:20;;;;;;;0.80;0.80;;;22.00;62.30;;;;;;5077052;28;20984;-73
2022/10/27 11:51:52;;;;;;;0.70;0.70;;;22.20;63.80;;;;;;5077436;28;20544;-73
2022/10/27 11:54:19;;;;;;;0.70;0.70;;;22.50;62.20;;;;;;5077350;28;20433;-73
2022/10/27 11:56:57;;;;;;;0.80;0.77;;;22.60;61.50;;;;;;5077520;28;20441;-73
2022/10/27 11:59:34;;;;;;;0.70;0.70;;;22.90;61.10;;;;;;5078486;28;20426;-72
2022/10/27 12:02:19;;;;;;;1.00;0.80;;;23.20;60.40;;;;;;5077085;28;20493;-72
2022/10/27 12:04:51;;;;;;;0.90;0.70;;;23.50;60.00;;;;;;5078570;28;20434;-72
2022/10/27 12:07:33;;;;;;;0.80;0.80;;;23.90;59.80;;;;;;5078149;28;20919;-73
2022/10/27 12:10:10;;;;;;;0.80;0.70;;;24.00;58.60;;;;;;5079222;28;20430;-72
2022/10/27 12:12:38;;;;;;;0.80;0.80;;;24.00;59.20;;;;;;5081001;28;20829;-73
2022/10/27 12:15:12;;;;;;;0.80;0.80;;;24.00;59.50;;;;;;5081690;28;20452;-76
2022/10/27 12:17:46;;;;;;;0.73;0.73;;;24.40;58.60;;;;;;5080072;28;20443;-79
2022/10/27 12:20:17;;;;;;;0.80;0.80;;;24.40;57.70;;;;;;5078004;28;20430;-75
2022/10/27 12:22:51;;;;;;;0.80;0.80;;;24.30;56.50;;;;;;5077859;28;20477;-74
2022/10/27 12:25:24;;;;;;;0.60;0.60;;;24.40;57.40;;;;;;5078611;28;20438;-73
2022/10/27 12:27:56;;;;;;;0.67;0.63;;;24.60;57.60;;;;;;5078807;28;20452;-72
2022/10/27 12:30:24;;;;;;;0.77;0.70;;;24.70;56.90;;;;;;5077625;28;20445;-73
2022/10/27 12:32:57;;;;;;;0.70;0.70;;;24.80;56.90;;;;;;5077565;28;20446;-73
2022/10/27 12:35:30;;;;;;;0.70;0.70;;;25.10;56.70;;;;;;5076176;28;20916;-74
2022/10/27 12:38:07;;;;;;;0.70;0.70;;;25.40;56.40;;;;;;5077651;28;20429;-73
2022/10/27 12:40:43;;;;;;;0.70;0.70;;;25.60;55.20;;;;;;5077174;28;20426;-73
2022/10/27 12:43:18;;;;;;;0.97;0.70;;;25.60;53.90;;;;;;5075800;28;20901;-73
2022/10/27 12:46:09;;;;;;;0.70;0.70;;;25.80;54.40;;;;;;5076904;28;20433;-73
2022/10/27 12:48:46;;;;;;;1.33;0.73;;;25.60;53.70;;;;;;5076387;28;20482;-73
2022/10/27 12:51:22;;;;;;;0.63;0.63;;;25.60;54.30;;;;;;5077821;28;20469;-74
2022/10/27 12:53:54;;;;;;;0.80;0.80;;;25.80;54.20;;;;;;5076797;28;20433;-74
2022/10/27 12:56:31;;;;;;;0.70;0.70;;;25.90;54.10;;;;;;5076167;28;20434;-74
2022/10/27 12:59:10;;;;;;;0.90;0.70;;;26.10;53.30;;;;;;5076709;28;20426;-74
2022/10/27 13:01:45;;;;;;;0.70;0.70;;;26.70;52.00;;;;;;5076224;28;20477;-72
2022/10/27 13:04:38;;;;;;;0.70;0.70;;;27.20;51.60;;;;;;5076757;28;20435;-74
2022/10/27 13:07:54;;;;;;;0.70;0.70;;;27.90;50.00;;;;;;5078172;28;20447;-73
2022/10/27 13:10:45;;;;;;;0.70;0.60;;;29.30;48.10;;;;;;5078702;28;20645;-73
2022/10/27 13:13:40;;;;;;;1.43;0.80;;;31.40;45.30;;;;;;5079266;28;20426;-73
2022/10/27 13:16:15;;;;;;;1.00;0.70;;;33.40;42.70;;;;;;5079476;28;20928;-74
2022/10/27 13:19:01;;;;;;;0.93;0.70;;;36.00;39.10;;;;;;5078114;28;20422;-73
2022/10/27 13:21:36;;;;;;;1.20;0.80;;;37.60;37.40;;;;;;5081560;28;20466;-74
2022/10/27 13:24:17;;;;;;;0.70;0.63;;;38.40;35.80;;;;;;5080477;28;20432;-74
2022/10/27 13:26:53;;;;;;;0.83;0.83;;;39.40;34.20;;;;;;5082050;28;20448;-74
2022/10/27 13:29:33;;;;;;;0.70;0.70;;;39.50;34.20;;;;;;5079658;28;20469;-74
2022/10/27 13:32:38;;;;;;;0.70;0.63;;;40.60;34.10;;;;;;5079633;28;20547;-73
2022/10/27 13:35:39;;;;;;;0.60;0.60;;;41.90;32.20;;;;;;5081690;28;20436;-74
2022/10/27 13:38:24;;;;;;;1.53;0.70;;;42.70;30.80;;;;;;5080775;28;20429;-73
2022/10/27 13:40:53;;;;;;;0.73;0.73;;;42.10;31.30;;;;;;5080905;28;20468;-74
2022/10/27 13:43:46;;;;;;;0.80;0.80;;;41.90;31.10;;;;;;5076565;28;20502;-73
2022/10/27 13:46:14;;;;;;;0.60;0.60;;;42.40;31.80;;;;;;5068547;28;20449;-73
2022/10/27 13:48:48;;;;;;;0.63;0.63;;;42.30;31.30;;;;;;5074559;28;20484;-73
2022/10/27 13:51:40;;;;;;;0.87;0.70;;;41.90;31.00;;;;;;5075325;28;20484;-76
2022/10/27 13:54:50;;;;;;;0.70;0.70;;;42.00;31.30;;;;;;5067698;28;20854;-74
2022/10/27 13:57:56;;;;;;;0.70;0.70;;;41.90;31.20;;;;;;5013512;28;20484;-74
2022/10/27 14:00:32;;;;;;;0.70;0.67;;;42.30;30.90;;;;;;5012804;28;20447;-75
2022/10/27 14:03:40;;;;;;;0.60;0.60;;;42.70;30.30;;;;;;5065119;28;20457;-75
2022/10/27 14:06:20;;;;;;;0.63;0.63;;;42.50;30.80;;;;;;5075476;28;20525;-75
2022/10/27 14:08:49;;;;;;;0.63;0.63;;;42.80;30.70;;;;;;5075066;28;20500;-75
2022/10/27 14:11:18;;;;;;;0.80;0.80;;;42.60;30.80;;;;;;5074244;28;20469;-74
2022/10/27 14:13:47;;;;;;;0.70;0.70;;;42.20;31.00;;;;;;5074432;28;20444;-74
2022/10/27 14:16:19;;;;;;;0.70;0.70;;;42.50;30.30;;;;;;5073971;28;20441;-74
2022/10/27 14:19:00;;;;;;;0.70;0.70;;;42.00;30.80;;;;;;5074508;28;20433;-74
2022/10/27 14:21:27;;;;;;;1.20;0.80;;;41.10;32.00;;;;;;5073836;28;21003;-74
2022/10/27 14:23:53;;;;;;;0.70;0.70;;;41.00;32.00;;;;;;5074372;28;20469;-74
2022/10/27 14:26:28;;;;;;;0.80;0.80;;;40.10;32.90;;;;;;5074209;28;20838;-74
2022/10/27 14:28:55;;;;;;;0.70;0.63;;;38.50;34.40;;;;;;5074382;28;20464;-74
2022/10/27 14:31:23;;;;;;;0.63;0.63;;;36.10;37.20;;;;;;5074369;28;20470;-74
2022/10/27 14:33:52;;;;;;;0.60;0.60;;;34.30;39.10;;;;;;5074273;28;20446;-72
2022/10/27 14:36:21;;;;;;;1.00;0.80;;;32.60;41.50;;;;;;5075494;28;20446;-74
2022/10/27 14:38:50;;;;;;;0.77;0.77;;;31.60;43.40;;;;;;5074707;28;20442;-74
2022/10/27 14:41:19;;;;;;;0.60;0.60;;;31.50;43.50;;;;;;5074979;28;20473;-74
2022/10/27 14:43:49;;;;;;;0.80;0.80;;;31.30;43.60;;;;;;5075243;28;20453;-74
2022/10/27 14:46:19;;;;;;;0.70;0.63;;;30.70;44.30;;;;;;5075070;28;20453;-74
2022/10/27 14:48:55;;;;;;;0.80;0.70;;;30.00;46.10;;;;;;5075045;28;20466;-74
2022/10/27 14:51:22;;;;;;;0.70;0.70;;;29.90;47.30;;;;;;5075485;28;20531;-74
2022/10/27 14:53:52;;;;;;;0.60;0.60;;;29.40;48.50;;;;;;5075410;28;20450;-75
2022/10/27 14:56:23;;;;;;;0.70;0.70;;;29.00;49.30;;;;;;5075765;28;20450;-74
2022/10/27 14:58:54;;;;;;;0.80;0.80;;;28.50;49.70;;;;;;5075063;28;20430;-74
2022/10/27 15:01:23;;;;;;;0.80;0.80;;;27.60;51.10;;;;;;5075216;28;20493;-74
2022/10/27 15:03:49;;;;;;;1.20;0.93;;;27.30;54.30;;;;;;5075312;28;20453;-74
2022/10/27 15:06:19;;;;;;;0.90;0.80;;;27.20;55.00;;;;;;5074805;28;20446;-74
2022/10/27 15:08:47;;;;;;;0.93;0.90;;;27.00;56.20;;;;;;5075795;28;20485;-75
2022/10/27 15:11:19;;;;;;;1.73;0.93;;;26.70;57.30;;;;;;5074356;28;20999;-74
2022/10/27 15:13:46;;;;;;;1.00;0.90;;;26.50;58.10;;;;;;5074538;28;20807;-74
2022/10/27 15:16:18;;;;;;;1.17;0.70;;;26.20;58.70;;;;;;5075717;28;20450;-74
2022/10/27 15:18:46;;;;;;;0.93;0.93;;;26.00;59.40;;;;;;5075057;28;20426;-74
2022/10/27 15:21:15;;;;;;;1.10;1.00;;;25.70;60.00;;;;;;5074685;28;20561;-76
2022/10/27 15:23:45;;;;;;;0.80;0.80;;;25.50;60.40;;;;;;5074273;28;20808;-74
2022/10/27 15:26:15;;;;;;;1.10;1.00;;;25.30;60.50;;;;;;5074188;28;20433;-74
2022/10/27 15:28:43;;;;;;;0.70;0.70;;;25.10;61.60;;;;;;5074453;28;20490;-74
2022/10/27 15:31:10;;;;;;;1.20;0.80;;;24.90;62.20;;;;;;5074890;28;20572;-74
2022/10/27 15:33:40;;;;;;;0.77;0.77;;;24.70;62.80;;;;;;5074349;28;20453;-74
2022/10/27 15:36:23;;;;;;;1.20;1.10;;;24.50;63.40;;;;;;5074850;28;20488;-73
2022/10/27 15:38:53;;;;;;;1.10;0.90;;;24.40;64.20;;;;;;5075068;28;20430;-73
2022/10/27 15:41:22;;;;;;;0.70;0.70;;;24.20;64.70;;;;;;5075020;28;20501;-74
2022/10/27 15:43:50;;;;;;;0.80;0.80;;;24.10;65.40;;;;;;5074555;28;20454;-74
2022/10/27 15:46:26;;;;;;;0.80;0.80;;;24.00;65.90;;;;;;5074800;28;20442;-74
2022/10/27 15:49:13;;;;;;;0.83;0.83;;;23.90;66.40;;;;;;5075158;28;20441;-72
2022/10/27 15:51:45;;;;;;;1.60;0.90;;;23.80;66.90;;;;;;5074897;28;20474;-73
2022/10/27 15:54:21;;;;;;;0.80;0.80;;;23.60;67.50;;;;;;5075378;28;20465;-73
2022/10/27 15:56:51;;;;;;;0.80;0.80;;;23.50;67.80;;;;;;5075475;28;20433;-74
2022/10/27 15:59:21;;;;;;;1.20;1.10;;;23.40;68.00;;;;;;5074543;28;20461;-73
2022/10/27 16:01:49;;;;;;;0.77;0.77;;;23.20;68.30;;;;;;5073845;28;20477;-73
2022/10/27 16:04:34;;;;;;;0.70;0.70;;;23.10;68.80;;;;;;5074076;28;20446;-73
2022/10/27 16:07:30;;;;;;;1.33;0.70;;;23.00;69.00;;;;;;5073852;28;20905;-73
2022/10/27 16:09:58;;;;;;;0.70;0.70;;;22.90;69.20;;;;;;5073830;28;20478;-73